createdAt,value
2023-04-07T00:01:15.980Z,21.05
2023-04-07T00:03:43.990Z,21.27
2023-04-07T00:06:11.976Z,21.83
2023-04-07T00:08:39.607Z,20.17
2023-04-07T00:11:09.329Z,17.10
2023-04-07T00:13:36.827Z,19.13
2023-04-07T00:16:04.161Z,20.15
2023-04-07T00:18:31.921Z,19.27
2023-04-07T00:20:59.418Z,18.88
2023-04-07T00:23:27.514Z,19.60
2023-04-07T00:25:55.099Z,21.83
2023-04-07T00:28:24.548Z,19.15
2023-04-07T00:30:51.856Z,20.73
2023-04-07T00:33:19.971Z,20.15
2023-04-07T00:35:47.954Z,20.48
2023-04-07T00:38:15.813Z,20.55
2023-04-07T00:40:43.341Z,16.17
2023-04-07T00:43:11.066Z,22.85
2023-04-07T00:45:40.113Z,22.00
2023-04-07T00:48:08.164Z,18.67
2023-04-07T00:50:35.581Z,20.80
2023-04-07T00:53:05.352Z,20.00
2023-04-07T00:55:32.950Z,22.65
2023-04-07T00:58:00.800Z,19.63
2023-04-07T01:00:28.311Z,18.08
2023-04-07T01:03:01.718Z,19.23
2023-04-07T01:05:38.783Z,19.35
2023-04-07T01:08:13.476Z,20.77
2023-04-07T01:10:50.359Z,23.65
2023-04-07T01:13:24.289Z,20.55
2023-04-07T01:15:54.872Z,24.75
2023-04-07T01:18:29.486Z,20.17
2023-04-07T01:21:02.393Z,21.63
2023-04-07T01:23:49.491Z,19.65
2023-04-07T01:26:22.296Z,24.23
2023-04-07T01:29:11.341Z,16.15
2023-04-07T01:31:42.118Z,19.70
2023-04-07T01:34:11.893Z,15.52
2023-04-07T01:36:40.111Z,21.67
2023-04-07T01:39:09.728Z,20.27
2023-04-07T01:41:38.789Z,19.40
2023-04-07T01:44:08.143Z,20.55
2023-04-07T01:46:36.028Z,19.23
2023-04-07T01:49:06.693Z,17.10
2023-04-07T01:51:35.417Z,16.38
2023-04-07T01:54:05.265Z,19.58
2023-04-07T01:56:32.623Z,15.95
2023-04-07T01:59:00.374Z,16.00
2023-04-07T02:01:29.156Z,17.42
2023-04-07T02:04:05.632Z,14.73
2023-04-07T02:06:39.338Z,18.67
2023-04-07T02:09:11.092Z,18.10
2023-04-07T02:11:40.550Z,17.40
2023-04-07T02:14:10.298Z,14.52
2023-04-07T02:16:39.474Z,18.08
2023-04-07T02:19:07.656Z,15.95
2023-04-07T02:21:37.276Z,15.38
2023-04-07T02:24:06.751Z,17.27
2023-04-07T02:26:35.459Z,14.65
2023-04-07T02:29:03.425Z,14.57
2023-04-07T02:31:31.482Z,17.13
2023-04-07T02:33:59.348Z,16.60
2023-04-07T02:36:26.566Z,15.95
2023-04-07T02:38:59.015Z,18.85
2023-04-07T02:41:26.535Z,16.90
2023-04-07T02:43:54.961Z,15.73
2023-04-07T02:46:22.559Z,16.30
2023-04-07T02:48:50.367Z,16.35
2023-04-07T02:51:17.825Z,17.17
2023-04-07T02:53:45.650Z,17.77
2023-04-07T02:56:15.759Z,17.95
2023-04-07T02:58:43.663Z,13.02
2023-04-07T03:01:11.122Z,16.55
2023-04-07T03:03:40.142Z,18.73
2023-04-07T03:06:08.050Z,18.48
2023-04-07T03:08:35.889Z,15.48
2023-04-07T03:11:03.329Z,19.38
2023-04-07T03:13:32.763Z,15.93
2023-04-07T03:16:00.149Z,13.95
2023-04-07T03:18:28.334Z,18.77
2023-04-07T03:20:55.716Z,16.73
2023-04-07T03:23:23.585Z,15.13
2023-04-07T03:25:51.021Z,16.38
2023-04-07T03:28:18.784Z,17.20
2023-04-07T03:30:47.858Z,14.75
2023-04-07T03:33:16.129Z,15.13
2023-04-07T03:35:43.671Z,16.35
2023-04-07T03:38:11.498Z,17.60
2023-04-07T03:40:38.953Z,17.25
2023-04-07T03:43:07.093Z,19.15
2023-04-07T03:45:34.709Z,16.50
2023-04-07T03:48:04.714Z,19.05
2023-04-07T03:50:32.224Z,15.43
2023-04-07T03:53:00.105Z,15.55
2023-04-07T03:55:28.220Z,16.05
2023-04-07T03:57:56.615Z,16.00
2023-04-07T04:00:24.137Z,17.45
2023-04-07T04:02:52.347Z,18.75
2023-04-07T04:05:21.354Z,18.00
2023-04-07T04:07:49.257Z,16.52
2023-04-07T04:10:16.700Z,18.00
2023-04-07T04:12:44.688Z,20.30
2023-04-07T04:15:12.139Z,15.27
2023-04-07T04:17:42.049Z,16.75
2023-04-07T04:20:10.275Z,18.45
2023-04-07T04:22:39.744Z,17.63
2023-04-07T04:25:07.519Z,17.42
2023-04-07T04:27:35.776Z,16.60
2023-04-07T04:30:03.683Z,15.40
2023-04-07T04:32:31.670Z,17.38
2023-04-07T04:34:58.996Z,17.17
2023-04-07T04:37:27.571Z,16.02
2023-04-07T04:39:56.484Z,14.93
2023-04-07T04:42:24.367Z,16.92
2023-04-07T04:44:51.930Z,16.20
2023-04-07T04:47:19.859Z,16.95
2023-04-07T04:49:47.250Z,14.38
2023-04-07T04:52:15.001Z,18.88
2023-04-07T04:54:42.481Z,14.90
2023-04-07T04:57:12.092Z,14.95
2023-04-07T04:59:39.535Z,16.75
2023-04-07T05:02:07.426Z,15.88
2023-04-07T05:04:34.927Z,15.93
2023-04-07T05:07:03.082Z,12.77
2023-04-07T05:09:31.127Z,15.65
2023-04-07T05:11:58.947Z,14.27
2023-04-07T05:14:28.367Z,12.73
2023-04-07T05:16:56.214Z,20.70
2023-04-07T05:19:23.582Z,15.88
2023-04-07T05:21:51.504Z,13.77
2023-04-07T05:24:18.858Z,12.30
2023-04-07T05:26:46.672Z,12.63
2023-04-07T05:29:14.284Z,16.98
2023-04-07T05:31:43.653Z,12.75
2023-04-07T05:34:11.189Z,14.30
2023-04-07T05:36:39.260Z,14.70
2023-04-07T05:39:06.656Z,14.15
2023-04-07T05:41:34.348Z,10.00
2023-04-07T05:44:01.833Z,10.90
2023-04-07T05:46:29.688Z,10.73
2023-04-07T05:49:00.759Z,10.57
2023-04-07T05:51:32.718Z,13.32
2023-04-07T05:54:02.611Z,11.02
2023-04-07T05:56:30.396Z,8.73
2023-04-07T05:58:58.164Z,11.10
2023-04-07T06:01:27.041Z,10.23
2023-04-07T06:03:55.319Z,9.93
2023-04-07T06:06:24.752Z,12.65
2023-04-07T06:08:52.285Z,10.23
2023-04-07T06:11:20.473Z,12.30
2023-04-07T06:13:48.461Z,13.32
2023-04-07T06:16:17.437Z,9.32
2023-04-07T06:18:46.688Z,12.85
2023-04-07T06:21:15.246Z,11.15
2023-04-07T06:23:44.196Z,12.00
2023-04-07T06:26:12.930Z,10.77
2023-04-07T06:28:40.442Z,11.55
2023-04-07T06:31:08.754Z,13.25
2023-04-07T06:33:36.605Z,13.75
2023-04-07T06:36:04.893Z,13.05
2023-04-07T06:38:32.486Z,12.15
2023-04-07T06:41:01.802Z,11.70
2023-04-07T06:43:30.952Z,12.48
2023-04-07T06:45:58.928Z,13.65
2023-04-07T06:48:26.560Z,15.55
2023-04-07T06:50:54.701Z,12.23
2023-04-07T06:53:23.788Z,13.05
2023-04-07T06:55:51.806Z,12.75
2023-04-07T06:58:20.679Z,13.60
2023-04-07T07:00:48.390Z,12.45
2023-04-07T07:03:16.652Z,14.27
2023-04-07T07:05:45.071Z,12.25
2023-04-07T07:08:12.444Z,13.88
2023-04-07T07:10:40.469Z,16.30
2023-04-07T07:13:07.984Z,14.10
2023-04-07T07:15:37.232Z,14.73
2023-04-07T07:18:05.146Z,17.35
2023-04-07T07:20:32.943Z,15.60
2023-04-07T07:23:00.773Z,17.33
2023-04-07T07:25:28.932Z,14.48
2023-04-07T07:27:56.491Z,12.15
2023-04-07T07:30:24.746Z,15.55
2023-04-07T07:32:54.859Z,13.07
2023-04-07T07:35:23.179Z,11.20
2023-04-07T07:37:50.890Z,13.40
2023-04-07T07:40:18.904Z,11.18
2023-04-07T07:42:47.223Z,10.80
2023-04-07T07:45:15.380Z,12.93
2023-04-07T07:47:43.467Z,13.70
2023-04-07T07:50:13.678Z,12.23
2023-04-07T07:52:41.306Z,15.80
2023-04-07T07:55:09.760Z,12.65
2023-04-07T07:57:37.657Z,12.07
2023-04-07T08:00:07.311Z,12.57
2023-04-07T08:02:35.118Z,13.05
2023-04-07T08:05:04.276Z,11.80
2023-04-07T08:07:33.450Z,12.75
2023-04-07T08:10:01.351Z,12.10
2023-04-07T08:12:28.792Z,12.93
2023-04-07T08:14:56.859Z,11.32
2023-04-07T08:17:24.338Z,15.30
2023-04-07T08:19:52.358Z,11.07
2023-04-07T08:22:19.994Z,13.35
2023-04-07T08:24:49.725Z,12.90
2023-04-07T08:27:20.037Z,12.32
2023-04-07T08:29:59.449Z,11.05
2023-04-07T08:32:37.965Z,13.52
2023-04-07T08:35:06.399Z,13.13
2023-04-07T08:37:34.972Z,12.38
2023-04-07T08:40:05.517Z,11.23
2023-04-07T08:42:35.225Z,11.57
2023-04-07T08:45:06.502Z,12.13
2023-04-07T08:47:35.213Z,10.77
2023-04-07T08:50:07.591Z,13.35
2023-04-07T08:52:41.824Z,10.77
2023-04-07T08:55:11.501Z,12.55
2023-04-07T08:57:39.936Z,13.05
2023-04-07T09:00:09.575Z,10.60
2023-04-07T09:02:39.058Z,13.68
2023-04-07T09:05:08.949Z,12.90
2023-04-07T09:07:38.469Z,13.25
2023-04-07T09:10:07.918Z,12.27
2023-04-07T09:12:36.958Z,13.07
2023-04-07T09:15:06.529Z,13.07
2023-04-07T09:17:34.090Z,16.83
2023-04-07T09:20:03.064Z,27.38
2023-04-07T09:22:38.960Z,13.38
2023-04-07T09:25:14.636Z,11.45
2023-04-07T09:27:54.839Z,18.70
2023-04-07T09:30:23.868Z,14.05
2023-04-07T09:32:51.363Z,17.10
2023-04-07T09:35:19.365Z,18.13
2023-04-07T09:38:01.874Z,16.58
2023-04-07T09:40:29.716Z,15.23
2023-04-07T09:42:58.847Z,13.52
2023-04-07T09:45:34.525Z,15.75
2023-04-07T09:48:06.529Z,13.02
2023-04-07T09:50:35.680Z,9.93
2023-04-07T09:53:05.746Z,9.63
2023-04-07T09:55:34.071Z,12.80
2023-04-07T09:58:05.335Z,13.35
2023-04-07T10:00:33.681Z,14.00
2023-04-07T10:03:01.694Z,9.15
2023-04-07T10:05:30.183Z,12.68
2023-04-07T10:07:57.838Z,9.10
2023-04-07T10:10:27.588Z,9.82
2023-04-07T10:12:56.655Z,11.25
2023-04-07T10:15:26.472Z,10.68
2023-04-07T10:17:54.631Z,11.77
2023-04-07T10:20:23.909Z,9.27
2023-04-07T10:22:53.100Z,11.18
2023-04-07T10:25:24.303Z,11.80
2023-04-07T10:27:56.622Z,14.10
2023-04-07T10:30:28.048Z,13.65
2023-04-07T10:32:56.086Z,15.25
2023-04-07T10:35:24.733Z,14.30
2023-04-07T10:38:12.860Z,13.13
2023-04-07T10:40:42.669Z,11.05
2023-04-07T10:43:11.174Z,13.43
2023-04-07T10:45:56.889Z,14.68
2023-04-07T10:51:16.414Z,14.63
2023-04-07T10:57:03.342Z,12.00
2023-04-07T10:59:31.492Z,11.55
2023-04-07T11:02:31.239Z,11.88
2023-04-07T11:04:58.965Z,10.00
2023-04-07T11:07:45.485Z,11.10
2023-04-07T11:10:13.725Z,12.93
2023-04-07T11:12:42.013Z,12.00
2023-04-07T11:15:21.105Z,9.80
2023-04-07T11:18:08.928Z,14.88
2023-04-07T11:20:46.134Z,12.80
2023-04-07T11:23:15.807Z,9.75
2023-04-07T11:25:44.785Z,14.05
2023-04-07T11:28:13.721Z,12.25
2023-04-07T11:30:47.584Z,10.30
2023-04-07T11:33:19.152Z,13.25
2023-04-07T11:35:54.820Z,11.30
2023-04-07T11:38:26.493Z,11.48
2023-04-07T11:40:56.068Z,10.30
2023-04-07T11:43:25.928Z,13.00
2023-04-07T11:46:07.956Z,13.32
2023-04-07T11:48:39.350Z,13.68
2023-04-07T11:51:15.175Z,11.25
2023-04-07T11:53:43.580Z,11.70
2023-04-07T11:56:13.663Z,14.43
2023-04-07T11:58:47.430Z,13.73
2023-04-07T12:01:14.971Z,16.95
2023-04-07T12:03:58.716Z,14.48
2023-04-07T12:06:30.228Z,16.77
2023-04-07T12:08:58.456Z,17.42
2023-04-07T12:11:26.069Z,22.33
2023-04-07T12:13:54.307Z,25.33
2023-04-07T12:16:22.596Z,26.95
2023-04-07T12:18:51.529Z,22.73
2023-04-07T12:21:20.865Z,22.13
2023-04-07T12:23:49.328Z,26.20
2023-04-07T12:26:17.057Z,19.60
2023-04-07T12:28:45.103Z,19.45
2023-04-07T12:31:12.586Z,19.70
2023-04-07T12:33:40.667Z,19.98
2023-04-07T12:36:08.435Z,23.17
2023-04-07T12:38:50.258Z,19.75
2023-04-07T12:41:17.965Z,20.77
2023-04-07T12:43:46.950Z,19.25
2023-04-07T12:46:15.034Z,19.33
2023-04-07T12:48:44.307Z,17.90
2023-04-07T12:51:12.106Z,20.70
2023-04-07T12:53:41.621Z,20.52
2023-04-07T12:56:09.275Z,18.88
2023-04-07T12:58:37.417Z,16.08
2023-04-07T13:01:05.343Z,22.27
2023-04-07T13:03:33.983Z,17.25
2023-04-07T13:06:02.008Z,14.90
2023-04-07T13:08:30.307Z,17.08
2023-04-07T13:10:59.133Z,16.02
2023-04-07T13:13:27.961Z,14.55
2023-04-07T13:15:55.432Z,13.15
2023-04-07T13:18:23.377Z,14.10
2023-04-07T13:21:03.607Z,12.55
2023-04-07T13:23:43.319Z,15.15
2023-04-07T13:28:41.470Z,14.85
2023-04-07T13:31:09.163Z,15.18
2023-04-07T13:33:37.301Z,16.38
2023-04-07T13:36:04.878Z,15.95
2023-04-07T13:38:36.227Z,13.73
2023-04-07T13:41:03.956Z,16.17
2023-04-07T13:43:33.455Z,16.45
2023-04-07T13:46:01.123Z,20.38
2023-04-07T13:48:29.226Z,17.63
2023-04-07T13:50:57.006Z,16.23
2023-04-07T13:53:25.202Z,16.70
2023-04-07T13:55:52.942Z,17.23
2023-04-07T13:58:21.051Z,17.83
2023-04-07T14:00:50.772Z,13.55
2023-04-07T14:03:19.215Z,17.30
2023-04-07T14:05:47.159Z,14.10
2023-04-07T14:08:15.181Z,16.77
2023-04-07T14:10:43.094Z,16.08
2023-04-07T14:13:11.242Z,16.15
2023-04-07T14:15:38.659Z,15.50
2023-04-07T14:18:08.790Z,18.65
2023-04-07T14:20:37.212Z,16.17
2023-04-07T14:23:05.233Z,17.88
2023-04-07T14:25:32.925Z,18.13
2023-04-07T14:28:00.908Z,16.60
2023-04-07T14:30:28.595Z,16.38
2023-04-07T14:32:56.650Z,16.80
2023-04-07T14:35:25.826Z,14.63
2023-04-07T14:37:53.884Z,12.68
2023-04-07T14:40:21.645Z,16.00
2023-04-07T14:42:50.043Z,13.98
2023-04-07T14:45:17.814Z,18.75
2023-04-07T14:47:45.811Z,21.60
2023-04-07T14:50:13.492Z,18.02
2023-04-07T14:52:42.917Z,15.48
2023-04-07T14:55:10.565Z,14.32
2023-04-07T14:57:38.627Z,11.48
2023-04-07T15:00:07.281Z,14.05
2023-04-07T15:02:36.695Z,16.80
2023-04-07T15:05:05.119Z,13.93
2023-04-07T15:07:33.505Z,14.50
2023-04-07T15:10:02.551Z,12.23
2023-04-07T15:12:31.031Z,15.70
2023-04-07T15:14:58.869Z,14.43
2023-04-07T15:17:40.012Z,15.40
2023-04-07T15:20:11.665Z,17.35
2023-04-07T15:22:40.167Z,17.38
2023-04-07T15:25:09.425Z,15.43
2023-04-07T15:27:37.618Z,15.25
2023-04-07T15:30:06.148Z,14.93
2023-04-07T15:32:34.328Z,16.73
2023-04-07T15:35:01.857Z,17.10
2023-04-07T15:37:29.783Z,18.27
2023-04-07T15:39:57.262Z,16.70
2023-04-07T15:42:26.636Z,20.63
2023-04-07T15:44:54.308Z,16.90
2023-04-07T15:47:22.453Z,17.73
2023-04-07T15:49:50.091Z,17.95
2023-04-07T15:52:18.109Z,16.45
2023-04-07T15:54:45.645Z,20.65
2023-04-07T15:57:13.560Z,19.58
2023-04-07T15:59:42.579Z,18.63
2023-04-07T16:02:13.020Z,18.13
2023-04-07T16:04:41.936Z,19.48
2023-04-07T16:07:10.072Z,20.08
2023-04-07T16:09:38.050Z,18.15
2023-04-07T16:12:06.302Z,19.20
2023-04-07T16:14:34.177Z,23.15
2023-04-07T16:17:03.812Z,21.33
2023-04-07T16:19:31.383Z,19.48
2023-04-07T16:21:59.415Z,18.13
2023-04-07T16:24:27.186Z,20.23
2023-04-07T16:26:55.004Z,19.52
2023-04-07T16:29:24.928Z,20.80
2023-04-07T16:31:53.699Z,28.30
2023-04-07T16:34:23.085Z,19.45
2023-04-07T16:36:51.189Z,21.80
2023-04-07T16:39:19.576Z,18.90
2023-04-07T16:41:47.412Z,19.38
2023-04-07T16:44:15.208Z,18.80
2023-04-07T16:46:43.475Z,21.88
2023-04-07T16:49:11.068Z,20.45
2023-04-07T16:51:40.539Z,15.88
2023-04-07T16:54:07.999Z,17.27
2023-04-07T16:56:36.019Z,15.38
2023-04-07T16:59:04.077Z,14.98
2023-04-07T17:01:32.050Z,15.43
2023-04-07T17:03:59.730Z,15.65
2023-04-07T17:06:28.070Z,19.02
2023-04-07T17:08:57.161Z,15.77
2023-04-07T17:11:25.485Z,15.48
2023-04-07T17:13:53.018Z,16.17
2023-04-07T17:16:21.484Z,17.60
2023-04-07T17:18:49.403Z,16.80
2023-04-07T17:21:17.662Z,16.63
2023-04-07T17:23:45.336Z,14.02
2023-04-07T17:26:14.866Z,13.05
2023-04-07T17:28:42.391Z,15.52
2023-04-07T17:31:12.926Z,16.25
2023-04-07T17:33:40.607Z,13.95
2023-04-07T17:36:08.968Z,14.90
2023-04-07T17:38:36.643Z,11.95
2023-04-07T17:41:04.783Z,16.88
2023-04-07T17:43:33.769Z,15.68
2023-04-07T17:46:01.740Z,15.90
2023-04-07T17:48:29.321Z,14.93
2023-04-07T17:50:57.165Z,18.15
2023-04-07T17:53:24.837Z,14.23
2023-04-07T17:55:52.744Z,14.57
2023-04-07T17:58:20.186Z,17.75
2023-04-07T18:00:49.650Z,17.70
2023-04-07T18:03:17.785Z,16.88
2023-04-07T18:05:47.252Z,16.50
2023-04-07T18:08:14.943Z,18.13
2023-04-07T18:10:43.082Z,15.25
2023-04-07T18:13:10.553Z,15.68
2023-04-07T18:15:38.541Z,13.63
2023-04-07T18:18:07.768Z,15.73
2023-04-07T18:20:35.641Z,18.15
2023-04-07T18:23:03.121Z,17.83
2023-04-07T18:25:30.853Z,16.63
2023-04-07T18:27:58.487Z,15.68
2023-04-07T18:30:26.288Z,17.88
2023-04-07T18:32:53.616Z,16.92
2023-04-07T18:35:23.409Z,17.38
2023-04-07T18:37:51.011Z,20.38
2023-04-07T18:40:19.243Z,19.42
2023-04-07T18:42:46.770Z,19.95
2023-04-07T18:45:14.988Z,22.20
2023-04-07T18:47:42.632Z,16.20
2023-04-07T18:50:11.519Z,22.88
2023-04-07T18:52:40.826Z,18.63
2023-04-07T18:55:09.881Z,19.33
2023-04-07T18:57:37.914Z,19.52
2023-04-07T19:00:07.304Z,20.73
2023-04-07T19:02:34.954Z,21.67
2023-04-07T19:05:03.702Z,21.83
2023-04-07T19:07:31.238Z,17.80
2023-04-07T19:10:00.696Z,20.17
2023-04-07T19:12:28.376Z,18.67
2023-04-07T19:14:56.210Z,18.73
2023-04-07T19:17:23.952Z,19.13
2023-04-07T19:19:51.835Z,20.35
2023-04-07T19:22:19.657Z,21.80
2023-04-07T19:24:48.121Z,20.73
2023-04-07T19:27:17.398Z,18.45
2023-04-07T19:29:45.394Z,21.95
2023-04-07T19:32:12.929Z,19.45
2023-04-07T19:34:41.195Z,19.98
2023-04-07T19:37:08.933Z,21.02
2023-04-07T19:39:37.356Z,21.52
2023-04-07T19:42:05.077Z,21.83
2023-04-07T19:44:34.893Z,19.15
2023-04-07T19:47:02.853Z,20.60
2023-04-07T19:49:30.877Z,18.88
2023-04-07T19:51:58.608Z,17.15
2023-04-07T19:54:26.544Z,18.17
2023-04-07T19:56:54.537Z,18.63
2023-04-07T19:59:22.450Z,19.77
2023-04-07T20:01:52.967Z,19.95
2023-04-07T20:04:21.038Z,18.13
2023-04-07T20:06:48.512Z,18.83
2023-04-07T20:09:16.342Z,17.60
2023-04-07T20:11:44.525Z,19.80
2023-04-07T20:14:12.519Z,19.23
2023-04-07T20:16:40.213Z,17.33
2023-04-07T20:19:10.356Z,18.52
2023-04-07T20:21:37.982Z,18.70
2023-04-07T20:24:06.358Z,15.70
2023-04-07T20:26:34.116Z,15.35
2023-04-07T20:29:02.467Z,15.70
2023-04-07T20:31:30.044Z,19.00
2023-04-07T20:33:59.564Z,17.98
2023-04-07T20:36:28.522Z,17.02
2023-04-07T20:38:56.672Z,15.25
2023-04-07T20:41:24.215Z,18.42
2023-04-07T20:43:52.283Z,18.73
2023-04-07T20:46:19.833Z,17.67
2023-04-07T20:48:48.019Z,15.65
2023-04-07T20:51:15.885Z,18.33
2023-04-07T20:53:45.311Z,16.35
2023-04-07T20:56:12.921Z,15.93
2023-04-07T20:58:41.101Z,15.55
2023-04-07T21:01:08.866Z,17.80
2023-04-07T21:03:37.264Z,15.20
2023-04-07T21:06:04.976Z,16.98
2023-04-07T21:08:33.270Z,14.77
2023-04-07T21:11:02.441Z,15.18
2023-04-07T21:13:30.602Z,14.95
2023-04-07T21:15:58.569Z,16.13
2023-04-07T21:18:26.475Z,14.80
2023-04-07T21:20:56.691Z,15.63
2023-04-07T21:23:24.701Z,17.48
2023-04-07T21:25:52.233Z,18.38
2023-04-07T21:28:21.771Z,15.02
2023-04-07T21:30:49.432Z,14.90
2023-04-07T21:33:17.381Z,16.52
2023-04-07T21:35:44.831Z,17.25
2023-04-07T21:38:12.840Z,17.13
2023-04-07T21:40:40.478Z,18.48
2023-04-07T21:43:08.481Z,17.20
2023-04-07T21:45:37.626Z,16.77
2023-04-07T21:48:05.951Z,19.15
2023-04-07T21:50:33.603Z,14.48
2023-04-07T21:53:01.452Z,20.15
2023-04-07T21:55:29.026Z,20.85
2023-04-07T21:57:57.232Z,18.65
2023-04-07T22:00:24.680Z,22.38
2023-04-07T22:02:54.058Z,16.90
2023-04-07T22:05:21.799Z,17.08
2023-04-07T22:07:49.583Z,19.65
2023-04-07T22:10:17.029Z,17.80
2023-04-07T22:12:44.781Z,16.77
2023-04-07T22:15:12.422Z,15.50
2023-04-07T22:17:40.519Z,15.18
2023-04-07T22:20:11.113Z,14.90
2023-04-07T22:22:39.299Z,18.33
2023-04-07T22:25:07.543Z,16.55
2023-04-07T22:27:35.484Z,16.10
2023-04-07T22:30:03.162Z,18.80
2023-04-07T22:32:31.080Z,18.05
2023-04-07T22:34:58.455Z,16.10
2023-04-07T22:37:27.846Z,17.75
2023-04-07T22:39:55.389Z,16.60
2023-04-07T22:42:23.986Z,15.40
2023-04-07T22:44:51.504Z,14.32
2023-04-07T22:47:20.813Z,15.60
2023-04-07T22:49:48.526Z,15.98
2023-04-07T22:52:16.449Z,14.75
2023-04-07T22:54:45.884Z,17.33
2023-04-07T22:57:13.839Z,16.05
2023-04-07T22:59:41.288Z,15.38
2023-04-07T23:02:09.804Z,14.00
2023-04-07T23:04:37.396Z,12.30
2023-04-07T23:07:05.459Z,19.27
2023-04-07T23:09:33.026Z,18.40
2023-04-07T23:12:02.395Z,13.32
2023-04-07T23:14:29.785Z,13.23
2023-04-07T23:16:57.858Z,14.10
2023-04-07T23:19:25.567Z,14.52
2023-04-07T23:21:53.705Z,16.50
2023-04-07T23:24:21.249Z,15.63
2023-04-07T23:26:49.488Z,15.80
2023-04-07T23:29:18.677Z,16.50
2023-04-07T23:31:47.185Z,14.23
2023-04-07T23:34:14.593Z,14.93
2023-04-07T23:36:42.583Z,13.45
2023-04-07T23:39:10.005Z,17.67
2023-04-07T23:41:37.994Z,15.88
2023-04-07T23:44:05.423Z,15.93
2023-04-07T23:46:34.848Z,14.63
2023-04-07T23:49:02.381Z,15.43
2023-04-07T23:51:30.287Z,15.50
2023-04-07T23:53:57.625Z,14.10
2023-04-07T23:56:25.622Z,14.30
2023-04-07T23:58:53.036Z,15.02
